Time;durP1;ratioP1;P1;durP2;ratioP2;P2;SDS_P1;SDS_P2;PMS_P1;PMS_P2;Temp;Humidity;BMP_temperature;BMP_pressure;BME280_temperature;BME280_humidity;BME280_pressure;Samples;Min_cycle;Max_cycle;Signal;HPM_P1;HPM_P2
2023/06/07 00:02:26;;;;;;;12.63;8.27;;;;;;;;;;4973648;28;20450;-74
2023/06/07 00:04:51;;;;;;;9.02;7.15;;;;;;;;;;4972016;28;20050;-74
2023/06/07 00:07:18;;;;;;;8.07;7.10;;;;;;;;;;4973748;28;20489;-74
2023/06/07 00:09:43;;;;;;;8.10;7.28;;;;;;;;;;4988817;28;20092;-74
2023/06/07 00:12:09;;;;;;;6.50;5.68;;;;;;;;;;4973526;28;20023;-74
2023/06/07 00:14:34;;;;;;;6.97;6.28;;;;;;;;;;4973856;28;20041;-74
2023/06/07 00:17:00;;;;;;;7.63;6.32;;;;;;;;;;4970046;28;20552;-74
2023/06/07 00:19:25;;;;;;;6.68;5.97;;;;;;;;;;4996375;28;20042;-74
2023/06/07 00:21:51;;;;;;;9.05;5.78;;;;;;;;;;4981542;28;20287;-74
2023/06/07 00:24:17;;;;;;;7.30;5.93;;;;;;;;;;4979072;28;20105;-74
2023/06/07 00:26:42;;;;;;;6.45;5.85;;;;;;;;;;4984104;28;20062;-74
2023/06/07 00:29:08;;;;;;;6.70;5.32;;;;;;;;;;4971995;28;20385;-74
2023/06/07 00:31:33;;;;;;;9.65;5.78;;;;;;;;;;4972096;28;20043;-74
2023/06/07 00:33:59;;;;;;;7.10;6.00;;;;;;;;;;4971990;28;20042;-74
2023/06/07 00:36:25;;;;;;;8.13;5.90;;;;;;;;;;4976174;28;20033;-74
2023/06/07 00:38:50;;;;;;;7.75;5.65;;;;;;;;;;4980222;28;20026;-74
2023/06/07 00:41:16;;;;;;;5.70;5.10;;;;;;;;;;4975236;28;20744;-74
2023/06/07 00:43:42;;;;;;;5.68;4.85;;;;;;;;;;4989111;28;20026;-74
2023/06/07 00:46:08;;;;;;;6.63;5.07;;;;;;;;;;4978592;28;20030;-74
2023/06/07 00:48:34;;;;;;;7.30;5.93;;;;;;;;;;4974948;28;20039;-74
2023/06/07 00:51:00;;;;;;;8.60;7.15;;;;;;;;;;4972327;28;20058;-74
2023/06/07 00:53:25;;;;;;;7.63;6.07;;;;;;;;;;4972006;28;20413;-74
2023/06/07 00:55:51;;;;;;;7.72;6.18;;;;;;;;;;4980503;28;20039;-74
2023/06/07 00:58:16;;;;;;;6.20;5.60;;;;;;;;;;4980627;28;20035;-74
2023/06/07 01:00:42;;;;;;;7.72;6.00;;;;;;;;;;4980733;28;20054;-74
2023/06/07 01:03:07;;;;;;;7.35;5.88;;;;;;;;;;4977687;28;20109;-74
2023/06/07 01:05:33;;;;;;;7.30;6.07;;;;;;;;;;4972655;28;20022;-74
2023/06/07 01:08:00;;;;;;;6.30;5.60;;;;;;;;;;4978988;28;20109;-74
2023/06/07 01:10:25;;;;;;;11.52;6.50;;;;;;;;;;4991703;28;20045;-74
2023/06/07 01:12:54;;;;;;;9.80;7.70;;;;;;;;;;4975447;28;20392;-74
2023/06/07 01:15:20;;;;;;;8.55;7.10;;;;;;;;;;4983028;28;20114;-74
2023/06/07 01:17:47;;;;;;;14.50;9.35;;;;;;;;;;4979173;28;20023;-74
2023/06/07 01:20:33;;;;;;;11.27;8.60;;;;;;;;;;4989727;28;20058;-74
2023/06/07 01:23:03;;;;;;;8.95;7.72;;;;;;;;;;4963831;28;20521;-74
2023/06/07 01:25:28;;;;;;;11.93;8.60;;;;;;;;;;4969061;28;20517;-74
2023/06/07 01:27:56;;;;;;;9.00;6.95;;;;;;;;;;4972476;28;20062;-74
2023/06/07 01:30:23;;;;;;;9.68;7.65;;;;;;;;;;4967648;28;20021;-74
2023/06/07 01:32:50;;;;;;;7.78;6.63;;;;;;;;;;4979361;28;21754;-74
2023/06/07 01:35:16;;;;;;;9.30;7.18;;;;;;;;;;4978025;28;20108;-74
2023/06/07 01:37:44;;;;;;;7.60;6.70;;;;;;;;;;4984727;28;20512;-74
2023/06/07 01:40:11;;;;;;;8.52;6.18;;;;;;;;;;4972354;28;20031;-74
2023/06/07 01:42:37;;;;;;;9.20;7.00;;;;;;;;;;4976698;28;20168;-74
2023/06/07 01:45:05;;;;;;;7.85;6.43;;;;;;;;;;4972155;28;20019;-74
2023/06/07 01:47:31;;;;;;;8.32;7.25;;;;;;;;;;4978868;28;20116;-74
2023/06/07 01:49:57;;;;;;;12.23;8.23;;;;;;;;;;4963070;28;20034;-74
2023/06/07 01:52:23;;;;;;;13.05;9.32;;;;;;;;;;4972103;28;20035;-74
2023/06/07 01:54:48;;;;;;;10.43;8.75;;;;;;;;;;4971831;28;20095;-74
2023/06/07 01:57:27;;;;;;;17.45;11.00;;;;;;;;;;4971982;28;20023;-74
2023/06/07 02:00:26;;;;;;;18.65;13.15;;;;;;;;;;4967628;28;20075;-74
2023/06/07 02:03:03;;;;;;;20.00;13.95;;;;;;;;;;4979963;28;20039;-74
2023/06/07 02:05:33;;;;;;;18.77;12.73;;;;;;;;;;4970715;28;20564;-74
2023/06/07 02:08:01;;;;;;;19.83;13.15;;;;;;;;;;4968451;28;20037;-74
2023/06/07 02:10:30;;;;;;;21.92;12.55;;;;;;;;;;4971704;28;20548;-75
2023/06/07 02:12:57;;;;;;;16.35;12.05;;;;;;;;;;4979780;28;20057;-75
2023/06/07 02:15:22;;;;;;;17.35;10.60;;;;;;;;;;4971045;28;20505;-74
2023/06/07 02:17:49;;;;;;;18.25;11.18;;;;;;;;;;4970707;28;20117;-74
2023/06/07 02:20:15;;;;;;;29.58;11.82;;;;;;;;;;4970317;28;20409;-75
2023/06/07 02:22:40;;;;;;;19.08;11.75;;;;;;;;;;4980136;28;20040;-75
2023/06/07 02:25:06;;;;;;;16.38;12.02;;;;;;;;;;4978410;28;20152;-74
2023/06/07 02:27:31;;;;;;;17.98;10.85;;;;;;;;;;4973720;28;20088;-75
2023/06/07 02:29:56;;;;;;;15.73;10.13;;;;;;;;;;4975498;28;20015;-74
2023/06/07 02:32:22;;;;;;;14.80;10.73;;;;;;;;;;4974450;28;20669;-74
2023/06/07 02:34:47;;;;;;;17.00;11.73;;;;;;;;;;4975086;28;20031;-75
2023/06/07 02:37:13;;;;;;;27.23;12.95;;;;;;;;;;4975051;28;20493;-74
2023/06/07 02:39:38;;;;;;;25.55;15.75;;;;;;;;;;4975032;28;20042;-74
2023/06/07 02:42:04;;;;;;;21.67;13.43;;;;;;;;;;4979221;28;20054;-74
2023/06/07 02:44:30;;;;;;;24.77;15.80;;;;;;;;;;4987054;28;20026;-74
2023/06/07 02:46:55;;;;;;;30.50;16.75;;;;;;;;;;4975527;28;20057;-74
2023/06/07 02:49:21;;;;;;;29.17;16.80;;;;;;;;;;4974329;28;20065;-74
2023/06/07 02:51:46;;;;;;;28.92;16.88;;;;;;;;;;4974413;28;20043;-74
2023/06/07 02:54:13;;;;;;;32.70;19.75;;;;;;;;;;4962318;28;20042;-74
2023/06/07 02:56:38;;;;;;;35.83;18.58;;;;;;;;;;4965645;28;20054;-74
2023/06/07 02:59:04;;;;;;;29.80;18.80;;;;;;;;;;4971169;28;20092;-74
2023/06/07 03:01:31;;;;;;;31.95;19.58;;;;;;;;;;4978559;28;20035;-74
2023/06/07 03:03:57;;;;;;;30.13;18.10;;;;;;;;;;4974113;28;20986;-74
2023/06/07 03:06:22;;;;;;;29.63;16.98;;;;;;;;;;4971091;28;20234;-74
2023/06/07 03:08:47;;;;;;;20.88;14.73;;;;;;;;;;4974166;28;20573;-74
2023/06/07 03:11:13;;;;;;;29.70;15.68;;;;;;;;;;4973381;28;20037;-75
2023/06/07 03:13:39;;;;;;;25.05;15.75;;;;;;;;;;4958326;28;20036;-74
2023/06/07 03:16:04;;;;;;;24.75;15.10;;;;;;;;;;4967580;28;20042;-74
2023/06/07 03:18:31;;;;;;;21.25;14.55;;;;;;;;;;4976043;28;20109;-74
2023/06/07 03:20:56;;;;;;;21.38;15.60;;;;;;;;;;4968774;28;20041;-74
2023/06/07 03:23:21;;;;;;;27.30;15.82;;;;;;;;;;4967932;28;20031;-74
2023/06/07 03:25:47;;;;;;;17.75;11.10;;;;;;;;;;4978685;28;20034;-74
2023/06/07 03:28:13;;;;;;;23.85;9.60;;;;;;;;;;4970179;28;20544;-75
2023/06/07 03:30:38;;;;;;;17.45;10.18;;;;;;;;;;4963852;28;20043;-75
2023/06/07 03:33:04;;;;;;;22.20;10.15;;;;;;;;;;4976629;28;20397;-75
2023/06/07 03:35:30;;;;;;;13.88;8.63;;;;;;;;;;4974544;28;20030;-75
2023/06/07 03:37:55;;;;;;;13.40;8.75;;;;;;;;;;4962056;28;20667;-74
2023/06/07 03:40:21;;;;;;;14.35;10.65;;;;;;;;;;4965613;28;20042;-74
2023/06/07 03:42:46;;;;;;;15.35;11.45;;;;;;;;;;4971138;28;20389;-74
2023/06/07 03:45:11;;;;;;;16.27;11.70;;;;;;;;;;4975627;28;20069;-74
2023/06/07 03:47:37;;;;;;;19.35;13.43;;;;;;;;;;4968096;28;20035;-74
2023/06/07 03:50:03;;;;;;;19.00;13.25;;;;;;;;;;4955762;28;20635;-75
2023/06/07 03:52:28;;;;;;;22.27;12.85;;;;;;;;;;4966002;28;20047;-74
2023/06/07 03:54:53;;;;;;;18.40;13.70;;;;;;;;;;4967312;28;20038;-74
2023/06/07 03:57:19;;;;;;;22.23;15.07;;;;;;;;;;4970920;28;20062;-75
2023/06/07 03:59:44;;;;;;;23.05;14.60;;;;;;;;;;4966180;28;20117;-75
2023/06/07 04:02:09;;;;;;;28.83;16.42;;;;;;;;;;4956836;28;20037;-75
2023/06/07 04:04:34;;;;;;;18.25;14.48;;;;;;;;;;4969084;28;20042;-75
2023/06/07 04:07:03;;;;;;;22.80;15.18;;;;;;;;;;4965822;28;20437;-75
2023/06/07 04:09:28;;;;;;;19.52;13.30;;;;;;;;;;4964176;28;20049;-75
2023/06/07 04:11:54;;;;;;;15.57;12.70;;;;;;;;;;4970361;28;20106;-75
2023/06/07 04:14:19;;;;;;;29.60;13.18;;;;;;;;;;4970173;28;20059;-75
2023/06/07 04:16:44;;;;;;;17.80;12.73;;;;;;;;;;4971491;28;20090;-75
2023/06/07 04:19:10;;;;;;;13.88;11.60;;;;;;;;;;4970641;28;20041;-75
2023/06/07 04:21:35;;;;;;;16.10;9.95;;;;;;;;;;4976563;28;20553;-75
2023/06/07 04:24:01;;;;;;;12.23;10.13;;;;;;;;;;4970272;28;20022;-74
2023/06/07 04:26:31;;;;;;;11.55;9.25;;;;;;;;;;4970193;28;20043;-75
2023/06/07 04:28:57;;;;;;;8.00;7.20;;;;;;;;;;4971080;28;20101;-75
2023/06/07 04:31:29;;;;;;;14.77;6.00;;;;;;;;;;4966231;28;20057;-74
2023/06/07 04:33:57;;;;;;;6.45;5.57;;;;;;;;;;4972976;28;20042;-75
2023/06/07 04:36:25;;;;;;;10.25;5.90;;;;;;;;;;4969512;28;20126;-75
2023/06/07 04:38:52;;;;;;;8.93;6.28;;;;;;;;;;4974778;28;20035;-75
2023/06/07 04:41:17;;;;;;;6.97;6.28;;;;;;;;;;4969171;28;20030;-74
2023/06/07 04:43:48;;;;;;;10.27;7.28;;;;;;;;;;4965306;28;20039;-75
2023/06/07 04:46:15;;;;;;;9.52;7.88;;;;;;;;;;4968667;28;20050;-75
2023/06/07 04:48:40;;;;;;;10.25;7.60;;;;;;;;;;4962356;28;20061;-75
2023/06/07 04:51:07;;;;;;;11.40;7.18;;;;;;;;;;4974230;28;20034;-75
2023/06/07 04:53:36;;;;;;;8.63;7.25;;;;;;;;;;4968289;28;20274;-75
2023/06/07 04:56:03;;;;;;;15.25;7.32;;;;;;;;;;4970099;28;20035;-75
2023/06/07 04:58:29;;;;;;;8.02;6.78;;;;;;;;;;4965819;28;20062;-74
2023/06/07 05:00:56;;;;;;;9.95;6.53;;;;;;;;;;4963798;28;20038;-74
2023/06/07 05:03:22;;;;;;;16.85;7.60;;;;;;;;;;4969430;28;20023;-75
2023/06/07 05:05:48;;;;;;;17.02;6.57;;;;;;;;;;4969474;28;20031;-75
2023/06/07 05:08:14;;;;;;;7.45;6.55;;;;;;;;;;4972914;28;20141;-74
2023/06/07 05:10:40;;;;;;;6.53;5.82;;;;;;;;;;4964345;28;20037;-75
2023/06/07 05:13:05;;;;;;;11.23;5.70;;;;;;;;;;4965719;28;20042;-75
2023/06/07 05:15:31;;;;;;;6.38;5.35;;;;;;;;;;4963465;28;20212;-75
2023/06/07 05:17:56;;;;;;;6.43;5.45;;;;;;;;;;4969906;28;20037;-75
2023/06/07 05:20:24;;;;;;;12.30;5.32;;;;;;;;;;4966908;28;20477;-75
2023/06/07 05:22:50;;;;;;;5.78;5.20;;;;;;;;;;4970481;28;20085;-75
2023/06/07 05:25:16;;;;;;;4.88;4.45;;;;;;;;;;4969577;28;20046;-75
2023/06/07 05:27:42;;;;;;;8.57;4.70;;;;;;;;;;4966660;28;20050;-75
2023/06/07 05:30:08;;;;;;;6.20;4.28;;;;;;;;;;4973777;28;20043;-75
2023/06/07 05:32:34;;;;;;;5.40;4.05;;;;;;;;;;4970377;28;20393;-75
2023/06/07 05:35:01;;;;;;;7.72;4.68;;;;;;;;;;4960342;28;20549;-75
2023/06/07 05:37:27;;;;;;;5.97;4.55;;;;;;;;;;4956887;28;20039;-75
2023/06/07 05:39:53;;;;;;;4.15;3.80;;;;;;;;;;4961995;28;20043;-75
2023/06/07 05:42:19;;;;;;;4.55;4.15;;;;;;;;;;4963969;28;20118;-75
2023/06/07 05:44:45;;;;;;;4.18;3.72;;;;;;;;;;4964239;28;20485;-75
2023/06/07 05:47:11;;;;;;;6.25;3.72;;;;;;;;;;4965852;28;20061;-75
2023/06/07 05:49:36;;;;;;;4.20;3.80;;;;;;;;;;4957537;28;20129;-75
2023/06/07 05:52:02;;;;;;;4.97;3.88;;;;;;;;;;4970838;28;20031;-74
2023/06/07 05:54:27;;;;;;;6.80;4.05;;;;;;;;;;4963890;28;20035;-75
2023/06/07 05:56:52;;;;;;;4.75;3.63;;;;;;;;;;4964539;28;20362;-75
2023/06/07 05:59:17;;;;;;;4.50;3.75;;;;;;;;;;4963129;28;20574;-75
2023/06/07 06:01:44;;;;;;;7.45;4.13;;;;;;;;;;4967222;28;20035;-75
2023/06/07 06:04:10;;;;;;;5.68;3.55;;;;;;;;;;4971443;28;20041;-75
2023/06/07 06:06:36;;;;;;;5.80;4.20;;;;;;;;;;4988371;28;20043;-75
2023/06/07 06:09:01;;;;;;;9.07;3.83;;;;;;;;;;4968899;28;20023;-75
2023/06/07 06:11:26;;;;;;;5.78;3.80;;;;;;;;;;4967785;28;20043;-75
2023/06/07 06:13:52;;;;;;;3.83;3.47;;;;;;;;;;4969425;28;20035;-75
2023/06/07 06:16:17;;;;;;;5.85;3.80;;;;;;;;;;4976753;28;20051;-75
2023/06/07 06:18:42;;;;;;;4.38;3.63;;;;;;;;;;4979005;28;20077;-75
2023/06/07 06:21:08;;;;;;;5.00;3.70;;;;;;;;;;4964914;28;20027;-75
2023/06/07 06:23:35;;;;;;;4.50;3.47;;;;;;;;;;4967242;28;20536;-75
2023/06/07 06:26:00;;;;;;;6.78;3.60;;;;;;;;;;4973376;28;20090;-75
2023/06/07 06:28:26;;;;;;;3.97;3.35;;;;;;;;;;4965080;28;20039;-75
2023/06/07 06:30:51;;;;;;;3.67;3.38;;;;;;;;;;4966165;28;20035;-75
2023/06/07 06:33:16;;;;;;;3.72;3.40;;;;;;;;;;4969596;28;20027;-75
2023/06/07 06:35:42;;;;;;;3.65;3.35;;;;;;;;;;4960066;28;20042;-75
2023/06/07 06:38:07;;;;;;;8.68;3.70;;;;;;;;;;4979946;28;20710;-75
2023/06/07 06:40:32;;;;;;;7.13;3.72;;;;;;;;;;4978639;28;20038;-75
2023/06/07 06:42:59;;;;;;;3.97;3.50;;;;;;;;;;4972872;28;20042;-76
2023/06/07 06:45:25;;;;;;;5.85;4.15;;;;;;;;;;4975340;28;20097;-75
2023/06/07 06:47:51;;;;;;;4.18;3.65;;;;;;;;;;4978422;28;20477;-75
2023/06/07 06:50:16;;;;;;;4.60;3.03;;;;;;;;;;4970507;28;20067;-76
2023/06/07 06:52:42;;;;;;;4.57;3.42;;;;;;;;;;4990836;28;20035;-76
2023/06/07 06:55:07;;;;;;;4.57;3.97;;;;;;;;;;4969608;28;20042;-76
2023/06/07 06:57:32;;;;;;;6.15;3.92;;;;;;;;;;4970774;28;20046;-76
2023/06/07 06:59:59;;;;;;;5.03;3.50;;;;;;;;;;4984725;28;20543;-76
2023/06/07 07:02:24;;;;;;;4.15;2.92;;;;;;;;;;4973658;28;20106;-73
2023/06/07 07:04:50;;;;;;;3.92;3.40;;;;;;;;;;4971347;28;20112;-73
2023/06/07 07:07:15;;;;;;;3.17;2.95;;;;;;;;;;4966685;28;20031;-73
2023/06/07 07:09:41;;;;;;;4.28;3.10;;;;;;;;;;4970991;28;20039;-76
2023/06/07 07:12:07;;;;;;;6.43;3.38;;;;;;;;;;4971369;28;20031;-76
2023/06/07 07:14:32;;;;;;;5.90;2.92;;;;;;;;;;4969633;28;20089;-74
2023/06/07 07:16:57;;;;;;;4.50;3.05;;;;;;;;;;4973313;28;20035;-74
2023/06/07 07:19:22;;;;;;;3.72;3.28;;;;;;;;;;4966059;28;20054;-74
2023/06/07 07:21:48;;;;;;;3.88;3.30;;;;;;;;;;4966492;28;20117;-74
2023/06/07 07:24:13;;;;;;;5.97;3.42;;;;;;;;;;4968797;28;20441;-74
2023/06/07 07:26:41;;;;;;;4.65;3.50;;;;;;;;;;4970204;28;20517;-74
2023/06/07 07:29:07;;;;;;;5.90;3.13;;;;;;;;;;4966313;28;20139;-74
2023/06/07 07:31:33;;;;;;;7.30;3.20;;;;;;;;;;4960038;28;20150;-74
2023/06/07 07:34:03;;;;;;;4.05;2.92;;;;;;;;;;4953578;28;20027;-74
2023/06/07 07:36:28;;;;;;;4.10;3.17;;;;;;;;;;4962531;28;20039;-74
2023/06/07 07:38:54;;;;;;;4.70;3.05;;;;;;;;;;4976692;28;20030;-74
2023/06/07 07:41:20;;;;;;;3.42;3.10;;;;;;;;;;4977807;28;20038;-74
2023/06/07 07:43:45;;;;;;;4.78;3.03;;;;;;;;;;4973300;28;20629;-76
2023/06/07 07:46:11;;;;;;;3.83;3.28;;;;;;;;;;4966639;28;20039;-74
2023/06/07 07:48:36;;;;;;;3.55;3.10;;;;;;;;;;4978924;28;20042;-74
2023/06/07 07:51:02;;;;;;;8.27;3.63;;;;;;;;;;4998229;28;20064;-75
2023/06/07 07:53:27;;;;;;;5.05;2.85;;;;;;;;;;4977647;28;20121;-74
2023/06/07 07:55:53;;;;;;;2.88;2.60;;;;;;;;;;4992103;28;20054;-74
2023/06/07 07:58:18;;;;;;;4.28;2.58;;;;;;;;;;4980754;28;20054;-74
2023/06/07 08:00:43;;;;;;;4.78;3.10;;;;;;;;;;4973749;28;20034;-74
2023/06/07 08:03:09;;;;;;;2.95;2.75;;;;;;;;;;4975804;28;20050;-74
2023/06/07 08:05:34;;;;;;;4.05;2.30;;;;;;;;;;4994396;28;20031;-73
2023/06/07 08:08:00;;;;;;;6.40;2.67;;;;;;;;;;4963712;28;20446;-74
2023/06/07 08:10:25;;;;;;;3.10;2.80;;;;;;;;;;4957499;28;20050;-75
2023/06/07 08:12:51;;;;;;;3.75;2.47;;;;;;;;;;4962531;28;20143;-74
2023/06/07 08:15:16;;;;;;;2.72;2.50;;;;;;;;;;4957958;28;20027;-74
2023/06/07 08:17:41;;;;;;;3.35;2.60;;;;;;;;;;4976304;28;20053;-74
2023/06/07 08:20:08;;;;;;;2.97;2.78;;;;;;;;;;4968656;28;20082;-74
2023/06/07 08:22:35;;;;;;;3.40;3.10;;;;;;;;;;4972103;28;20083;-74
2023/06/07 08:25:00;;;;;;;3.13;2.83;;;;;;;;;;4967967;28;20062;-74
2023/06/07 08:27:26;;;;;;;2.58;2.38;;;;;;;;;;4968580;28;20065;-74
2023/06/07 08:29:51;;;;;;;3.08;2.72;;;;;;;;;;4956557;28;20031;-74
2023/06/07 08:32:16;;;;;;;4.43;3.10;;;;;;;;;;4960646;28;20751;-74
2023/06/07 08:34:42;;;;;;;5.43;2.70;;;;;;;;;;4964554;28;20027;-74
2023/06/07 08:37:07;;;;;;;4.22;2.40;;;;;;;;;;4962959;28;20378;-74
2023/06/07 08:39:33;;;;;;;2.75;2.45;;;;;;;;;;4965330;28;20044;-74
2023/06/07 08:41:58;;;;;;;2.47;2.28;;;;;;;;;;4965764;28;20078;-74
2023/06/07 08:44:24;;;;;;;3.88;2.88;;;;;;;;;;4969186;28;20046;-74
2023/06/07 08:46:49;;;;;;;6.13;2.80;;;;;;;;;;4971314;28;20061;-74
2023/06/07 08:49:16;;;;;;;2.75;2.55;;;;;;;;;;4964010;28;20055;-74
2023/06/07 08:51:42;;;;;;;3.65;2.90;;;;;;;;;;4961310;28;20446;-74
2023/06/07 08:54:10;;;;;;;7.25;2.78;;;;;;;;;;4966389;28;20066;-74
2023/06/07 08:56:38;;;;;;;2.75;2.55;;;;;;;;;;4967479;28;20443;-74
2023/06/07 08:59:04;;;;;;;3.55;2.80;;;;;;;;;;4966973;28;20038;-74
2023/06/07 09:01:29;;;;;;;2.70;2.50;;;;;;;;;;4967440;28;20042;-74
2023/06/07 09:03:55;;;;;;;7.47;3.28;;;;;;;;;;4969004;28;20402;-74
2023/06/07 09:06:21;;;;;;;4.40;2.75;;;;;;;;;;4975735;28;20045;-74
2023/06/07 09:08:47;;;;;;;3.13;2.80;;;;;;;;;;4969339;28;20386;-74
2023/06/07 09:11:13;;;;;;;4.50;3.17;;;;;;;;;;4969059;28;20041;-74
2023/06/07 09:13:39;;;;;;;3.17;2.80;;;;;;;;;;4983761;28;20034;-74
2023/06/07 09:16:04;;;;;;;3.78;2.85;;;;;;;;;;4975534;28;20094;-74
2023/06/07 09:18:53;;;;;;;3.47;3.10;;;;;;;;;;4970642;28;20453;-75
2023/06/07 09:21:22;;;;;;;3.38;2.65;;;;;;;;;;4957797;28;20062;-75
2023/06/07 09:23:48;;;;;;;3.03;2.70;;;;;;;;;;4964618;28;20113;-75
2023/06/07 09:26:17;;;;;;;3.65;2.80;;;;;;;;;;4967853;28;20042;-75
2023/06/07 09:28:42;;;;;;;2.95;2.60;;;;;;;;;;4970900;28;20389;-75
2023/06/07 09:31:08;;;;;;;6.38;2.72;;;;;;;;;;4959468;28;20035;-75
2023/06/07 09:33:34;;;;;;;3.40;3.10;;;;;;;;;;4972020;28;20035;-75
2023/06/07 09:36:05;;;;;;;3.88;2.92;;;;;;;;;;4960950;28;20046;-75
2023/06/07 09:38:30;;;;;;;4.07;3.00;;;;;;;;;;4968325;28;20042;-75
2023/06/07 09:41:00;;;;;;;4.75;2.90;;;;;;;;;;4972879;28;20038;-74
2023/06/07 09:43:26;;;;;;;4.38;2.55;;;;;;;;;;4968775;28;20038;-75
2023/06/07 09:45:53;;;;;;;7.53;2.78;;;;;;;;;;4968131;28;20331;-77
2023/06/07 09:48:19;;;;;;;2.90;2.70;;;;;;;;;;4970106;28;20018;-75
2023/06/07 09:50:58;;;;;;;3.95;3.00;;;;;;;;;;4963603;28;20501;-75
2023/06/07 09:53:24;;;;;;;4.90;3.10;;;;;;;;;;4955884;28;20437;-75
2023/06/07 09:55:50;;;;;;;4.22;2.90;;;;;;;;;;4955952;28;20130;-75
2023/06/07 09:58:23;;;;;;;5.85;2.95;;;;;;;;;;4978052;28;20561;-75
2023/06/07 10:00:49;;;;;;;3.03;2.80;;;;;;;;;;4963510;28;20225;-75
2023/06/07 10:03:15;;;;;;;4.95;2.85;;;;;;;;;;4966095;28;20533;-75
2023/06/07 10:05:41;;;;;;;2.92;2.72;;;;;;;;;;4969961;28;20030;-75
2023/06/07 10:08:09;;;;;;;3.90;2.63;;;;;;;;;;4963743;28;20043;-75
2023/06/07 10:10:35;;;;;;;3.53;2.90;;;;;;;;;;4957394;28;20445;-75
2023/06/07 10:13:04;;;;;;;5.00;3.55;;;;;;;;;;4967056;28;20035;-75
2023/06/07 10:15:30;;;;;;;3.28;2.97;;;;;;;;;;4963516;28;20050;-75
2023/06/07 10:18:05;;;;;;;3.92;2.88;;;;;;;;;;4979466;28;20046;-75
2023/06/07 10:20:35;;;;;;;3.33;2.97;;;;;;;;;;4971746;28;20050;-75
2023/06/07 10:23:07;;;;;;;3.85;2.85;;;;;;;;;;4978995;28;20488;-75
2023/06/07 10:25:52;;;;;;;3.28;3.00;;;;;;;;;;4970991;28;20054;-75
2023/06/07 10:28:43;;;;;;;5.07;3.10;;;;;;;;;;4985458;28;20050;-75
2023/06/07 10:31:11;;;;;;;8.15;3.28;;;;;;;;;;4987258;28;20035;-75
2023/06/07 10:33:37;;;;;;;2.80;2.60;;;;;;;;;;4971622;28;20387;-75
2023/06/07 10:36:05;;;;;;;3.20;2.90;;;;;;;;;;4979300;28;20023;-75
2023/06/07 10:38:32;;;;;;;3.05;2.85;;;;;;;;;;4979659;28;20030;-75
2023/06/07 10:40:59;;;;;;;6.03;3.00;;;;;;;;;;4974851;28;20034;-77
2023/06/07 10:43:28;;;;;;;3.70;3.17;;;;;;;;;;4971117;28;20027;-74
2023/06/07 10:46:25;;;;;;;3.35;2.97;;;;;;;;;;4978311;28;20386;-75
2023/06/07 10:48:52;;;;;;;3.80;3.22;;;;;;;;;;4976435;28;20109;-75
2023/06/07 10:51:38;;;;;;;8.48;3.08;;;;;;;;;;4983922;28;20030;-75
2023/06/07 10:54:03;;;;;;;5.95;2.78;;;;;;;;;;4974731;28;20386;-75
2023/06/07 10:56:33;;;;;;;3.03;2.83;;;;;;;;;;4975232;28;20034;-75
2023/06/07 10:59:14;;;;;;;3.20;2.78;;;;;;;;;;4965435;28;20038;-75
2023/06/07 11:01:39;;;;;;;3.63;2.90;;;;;;;;;;4968652;28;20489;-75
2023/06/07 11:04:05;;;;;;;7.25;3.08;;;;;;;;;;4982170;28;20038;-75
2023/06/07 11:06:33;;;;;;;2.78;2.58;;;;;;;;;;4974827;28;20042;-75
2023/06/07 11:09:17;;;;;;;3.45;2.90;;;;;;;;;;4979043;28;20400;-75
2023/06/07 11:11:43;;;;;;;3.90;2.70;;;;;;;;;;4969200;28;20046;-75
2023/06/07 11:14:10;;;;;;;8.60;3.00;;;;;;;;;;4974323;28;20035;-75
2023/06/07 11:16:36;;;;;;;3.22;2.80;;;;;;;;;;4977406;28;20108;-75
2023/06/07 11:19:09;;;;;;;3.00;2.80;;;;;;;;;;4973052;28;20055;-74
2023/06/07 11:21:58;;;;;;;4.28;2.75;;;;;;;;;;4973725;28;20122;-75
2023/06/07 11:24:24;;;;;;;3.45;3.00;;;;;;;;;;4973240;28;20402;-75
2023/06/07 11:26:52;;;;;;;3.33;2.95;;;;;;;;;;4966419;28;20363;-75
2023/06/07 11:29:19;;;;;;;4.72;2.83;;;;;;;;;;4969064;28;20031;-75
2023/06/07 11:31:55;;;;;;;5.13;3.13;;;;;;;;;;4961248;28;20054;-75
2023/06/07 11:34:20;;;;;;;4.68;2.90;;;;;;;;;;4962616;28;20121;-75
2023/06/07 11:36:46;;;;;;;4.22;2.90;;;;;;;;;;4969889;28;20122;-75
2023/06/07 11:39:16;;;;;;;3.25;2.90;;;;;;;;;;4985637;28;20027;-75
2023/06/07 11:41:42;;;;;;;4.97;3.20;;;;;;;;;;4971874;28;20023;-75
2023/06/07 11:44:07;;;;;;;3.72;3.30;;;;;;;;;;4966848;28;20035;-75
2023/06/07 11:46:33;;;;;;;3.55;3.10;;;;;;;;;;4966515;28;20089;-76
2023/06/07 11:49:09;;;;;;;4.32;3.20;;;;;;;;;;4965777;28;20138;-76
2023/06/07 11:51:35;;;;;;;3.33;3.00;;;;;;;;;;4958587;28;20039;-77
2023/06/07 11:54:00;;;;;;;4.82;3.00;;;;;;;;;;4964757;28;20046;-76
2023/06/07 11:56:27;;;;;;;3.20;2.90;;;;;;;;;;4966659;28;20562;-76
2023/06/07 11:58:53;;;;;;;3.58;3.28;;;;;;;;;;4967641;28;20034;-76
2023/06/07 12:01:19;;;;;;;2.88;2.67;;;;;;;;;;4955877;28;20093;-76
2023/06/07 12:03:45;;;;;;;3.75;3.00;;;;;;;;;;4961659;28;20114;-76
2023/06/07 12:06:10;;;;;;;6.00;3.30;;;;;;;;;;4967865;28;20426;-76
2023/06/07 12:08:35;;;;;;;3.88;3.50;;;;;;;;;;4960190;28;20023;-76
2023/06/07 12:11:01;;;;;;;4.68;2.92;;;;;;;;;;4961400;28;20169;-76
2023/06/07 12:13:27;;;;;;;3.20;2.90;;;;;;;;;;4962793;28;20039;-76
2023/06/07 12:15:53;;;;;;;3.72;2.83;;;;;;;;;;4966219;28;20032;-75
2023/06/07 12:18:20;;;;;;;4.95;3.40;;;;;;;;;;4967008;28;20110;-76
2023/06/07 12:20:47;;;;;;;4.90;2.83;;;;;;;;;;4955838;28;20061;-76
2023/06/07 12:23:15;;;;;;;4.70;3.15;;;;;;;;;;4975667;28;20049;-76
2023/06/07 12:25:41;;;;;;;3.17;2.90;;;;;;;;;;4963746;28;20047;-76
2023/06/07 12:28:13;;;;;;;6.13;2.88;;;;;;;;;;4962944;28;20039;-76
2023/06/07 12:30:40;;;;;;;3.85;2.80;;;;;;;;;;4955617;28;20039;-76
2023/06/07 12:33:14;;;;;;;4.15;3.30;;;;;;;;;;4960435;28;20038;-76
2023/06/07 12:35:45;;;;;;;3.55;3.25;;;;;;;;;;4960364;28;20481;-76
2023/06/07 12:38:10;;;;;;;6.07;3.17;;;;;;;;;;4958349;28;20098;-76
2023/06/07 12:40:36;;;;;;;9.68;3.47;;;;;;;;;;4957688;28;20034;-76
2023/06/07 12:43:01;;;;;;;4.80;2.65;;;;;;;;;;4971798;28;20501;-76
2023/06/07 12:45:26;;;;;;;4.65;3.13;;;;;;;;;;4961899;28;20100;-76
2023/06/07 12:47:52;;;;;;;4.40;3.30;;;;;;;;;;4964304;28;20130;-76
2023/06/07 12:50:17;;;;;;;3.42;2.90;;;;;;;;;;4956204;28;20050;-76
2023/06/07 12:52:43;;;;;;;3.63;3.08;;;;;;;;;;4959668;28;20062;-76
2023/06/07 12:55:08;;;;;;;3.15;2.85;;;;;;;;;;4958339;28;20045;-76
2023/06/07 12:57:34;;;;;;;5.63;3.03;;;;;;;;;;4957837;28;20141;-75
2023/06/07 12:59:59;;;;;;;5.30;3.35;;;;;;;;;;4974596;28;20022;-76
2023/06/07 13:02:25;;;;;;;3.15;2.90;;;;;;;;;;4972659;28;20360;-76
2023/06/07 13:04:50;;;;;;;3.17;2.88;;;;;;;;;;4972495;28;20035;-76
2023/06/07 13:07:15;;;;;;;5.53;3.40;;;;;;;;;;4979082;28;20382;-76
2023/06/07 13:09:40;;;;;;;10.98;3.25;;;;;;;;;;4989715;28;20030;-76
2023/06/07 13:12:07;;;;;;;4.40;3.00;;;;;;;;;;4978957;28;20038;-76
2023/06/07 13:14:33;;;;;;;6.40;2.90;;;;;;;;;;4972508;28;20022;-76
2023/06/07 13:16:58;;;;;;;4.38;2.60;;;;;;;;;;4972510;28;20034;-76
2023/06/07 13:19:23;;;;;;;3.50;2.95;;;;;;;;;;4972053;28;20169;-76
2023/06/07 13:21:48;;;;;;;3.40;3.10;;;;;;;;;;4977877;28;20160;-76
2023/06/07 13:24:14;;;;;;;6.43;3.42;;;;;;;;;;4974673;28;20038;-76
2023/06/07 13:26:40;;;;;;;7.32;3.13;;;;;;;;;;4972744;28;20026;-76
2023/06/07 13:29:05;;;;;;;4.53;3.13;;;;;;;;;;4971821;28;20046;-76
2023/06/07 13:31:31;;;;;;;8.35;3.03;;;;;;;;;;4979833;28;20097;-76
2023/06/07 13:33:56;;;;;;;4.68;3.22;;;;;;;;;;4971940;28;20097;-76
2023/06/07 13:36:22;;;;;;;3.72;3.00;;;;;;;;;;4975950;28;20049;-76
2023/06/07 13:38:48;;;;;;;5.13;3.00;;;;;;;;;;4980391;28;20488;-76
2023/06/07 13:41:14;;;;;;;3.65;3.08;;;;;;;;;;4971796;28;20023;-76
2023/06/07 13:43:40;;;;;;;4.30;3.17;;;;;;;;;;4980064;28;20085;-76
2023/06/07 13:46:05;;;;;;;3.63;3.22;;;;;;;;;;4971947;28;20034;-76
2023/06/07 13:48:31;;;;;;;3.40;3.10;;;;;;;;;;4982435;28;20026;-76
2023/06/07 13:50:57;;;;;;;3.28;2.97;;;;;;;;;;4983749;28;20030;-76
2023/06/07 13:53:23;;;;;;;3.30;3.00;;;;;;;;;;4979384;28;20027;-76
2023/06/07 13:55:49;;;;;;;4.72;3.17;;;;;;;;;;4990760;28;20674;-76
2023/06/07 13:58:14;;;;;;;5.32;3.10;;;;;;;;;;4973892;28;20130;-76
2023/06/07 14:00:41;;;;;;;3.97;3.00;;;;;;;;;;4971956;28;20667;-76
2023/06/07 14:03:07;;;;;;;4.05;3.30;;;;;;;;;;4987200;28;20465;-75
2023/06/07 14:05:32;;;;;;;3.33;3.08;;;;;;;;;;4995575;28;20027;-76
2023/06/07 14:07:57;;;;;;;3.35;2.95;;;;;;;;;;4976545;28;20031;-75
2023/06/07 14:10:23;;;;;;;3.10;2.80;;;;;;;;;;4969487;28;20032;-76
2023/06/07 14:12:48;;;;;;;4.63;3.20;;;;;;;;;;4968407;28;20501;-76
2023/06/07 14:15:13;;;;;;;6.13;3.35;;;;;;;;;;4971475;28;20031;-76
2023/06/07 14:17:39;;;;;;;9.82;3.58;;;;;;;;;;4987830;28;20118;-76
2023/06/07 14:20:06;;;;;;;3.45;3.15;;;;;;;;;;4977290;28;20137;-75
2023/06/07 14:22:31;;;;;;;5.47;3.22;;;;;;;;;;4967773;28;20047;-76
2023/06/07 14:24:56;;;;;;;6.32;3.38;;;;;;;;;;4966586;28;20406;-75
2023/06/07 14:27:22;;;;;;;3.38;3.08;;;;;;;;;;4965984;28;20158;-75
2023/06/07 14:29:47;;;;;;;5.38;3.20;;;;;;;;;;4975794;28;20089;-75
2023/06/07 14:32:13;;;;;;;4.50;3.22;;;;;;;;;;4980136;28;20453;-76
2023/06/07 14:34:38;;;;;;;3.40;3.10;;;;;;;;;;4975237;28;20031;-75
2023/06/07 14:37:04;;;;;;;3.72;3.38;;;;;;;;;;4976039;28;20469;-75